Time;durP1;ratioP1;P1;durP2;ratioP2;P2;SDS_P1;SDS_P2;PMS_P1;PMS_P2;Temp;Humidity;BMP_temperature;BMP_pressure;BME280_temperature;BME280_humidity;BME280_pressure;Samples;Min_cycle;Max_cycle;Signal;HPM_P1;HPM_P2
2023/07/16 00:01:01;;;;;;;6.75;3.50;;;;;;;;;;4955200;28;20101;-78
2023/07/16 00:03:27;;;;;;;9.75;4.15;;;;;;;;;;4955017;28;20557;-78
2023/07/16 00:05:52;;;;;;;6.20;3.72;;;;;;;;;;4972583;28;20019;-79
2023/07/16 00:08:18;;;;;;;4.60;3.63;;;;;;;;;;4972599;28;20022;-78
2023/07/16 00:10:43;;;;;;;3.17;2.88;;;;;;;;;;4954860;28;20026;-77
2023/07/16 00:13:09;;;;;;;7.75;4.10;;;;;;;;;;4972015;28;20034;-77
2023/07/16 00:15:34;;;;;;;8.70;3.55;;;;;;;;;;4971573;28;20132;-77
2023/07/16 00:18:00;;;;;;;5.47;3.60;;;;;;;;;;4938224;28;20067;-77
2023/07/16 00:20:25;;;;;;;10.57;3.50;;;;;;;;;;4972058;28;20026;-77
2023/07/16 00:22:51;;;;;;;4.88;3.38;;;;;;;;;;4971568;28;20033;-78
2023/07/16 00:25:17;;;;;;;6.13;3.55;;;;;;;;;;4972093;28;20075;-76
2023/07/16 00:27:43;;;;;;;7.63;3.97;;;;;;;;;;4955297;28;20030;-77
2023/07/16 00:30:09;;;;;;;15.07;4.88;;;;;;;;;;4972678;28;20105;-77
2023/07/16 00:32:34;;;;;;;6.70;4.65;;;;;;;;;;4972704;28;20046;-78
2023/07/16 00:35:01;;;;;;;7.00;3.80;;;;;;;;;;4954822;28;20027;-77
2023/07/16 00:37:27;;;;;;;6.20;3.80;;;;;;;;;;4970608;28;20077;-77
2023/07/16 00:39:52;;;;;;;10.05;3.78;;;;;;;;;;4971374;28;20031;-78
2023/07/16 00:42:18;;;;;;;7.63;3.70;;;;;;;;;;4954583;28;20031;-77
2023/07/16 00:44:43;;;;;;;8.40;3.67;;;;;;;;;;4954201;28;20019;-78
2023/07/16 00:47:09;;;;;;;8.73;3.33;;;;;;;;;;4972162;28;20023;-77
2023/07/16 00:49:36;;;;;;;4.05;3.40;;;;;;;;;;4971976;28;20428;-77
2023/07/16 00:52:02;;;;;;;6.70;3.22;;;;;;;;;;4970360;28;20081;-78
2023/07/16 00:54:29;;;;;;;4.90;3.50;;;;;;;;;;4970465;28;20093;-78
2023/07/16 00:56:55;;;;;;;6.80;3.78;;;;;;;;;;4954251;28;20031;-78
2023/07/16 00:59:21;;;;;;;5.72;3.58;;;;;;;;;;4971755;28;20034;-77
2023/07/16 01:01:46;;;;;;;10.23;3.47;;;;;;;;;;4971955;28;20076;-78
2023/07/16 01:04:12;;;;;;;9.18;3.65;;;;;;;;;;4954296;28;20181;-77
2023/07/16 01:06:50;;;;;;;6.13;3.40;;;;;;;;;;4954357;28;20096;-78
2023/07/16 01:09:18;;;;;;;10.98;3.88;;;;;;;;;;4971781;28;20022;-78
2023/07/16 01:11:44;;;;;;;8.80;3.00;;;;;;;;;;4971451;28;20026;-77
2023/07/16 01:14:12;;;;;;;6.55;3.10;;;;;;;;;;4970196;28;20030;-78
2023/07/16 01:16:37;;;;;;;9.35;3.70;;;;;;;;;;4971637;28;20161;-75
2023/07/16 01:19:04;;;;;;;10.65;2.95;;;;;;;;;;4971242;28;20395;-73
2023/07/16 01:21:52;;;;;;;9.40;3.70;;;;;;;;;;4953252;28;20026;-76
2023/07/16 01:24:47;;;;;;;10.73;2.92;;;;;;;;;;4941603;28;20046;-73
2023/07/16 01:28:02;;;;;;;5.93;3.00;;;;;;;;;;4971072;28;20027;-74
2023/07/16 01:30:29;;;;;;;5.85;3.03;;;;;;;;;;4928270;28;20130;-75
2023/07/16 01:32:57;;;;;;;8.52;3.00;;;;;;;;;;4971823;28;20424;-74
2023/07/16 01:35:23;;;;;;;10.50;3.17;;;;;;;;;;4954296;28;20391;-75
2023/07/16 01:37:48;;;;;;;8.65;3.30;;;;;;;;;;4971701;28;20035;-75
2023/07/16 01:40:14;;;;;;;6.97;2.88;;;;;;;;;;4971851;28;20037;-74
2023/07/16 01:42:40;;;;;;;10.25;3.33;;;;;;;;;;4954964;28;20035;-76
2023/07/16 01:45:06;;;;;;;5.57;3.30;;;;;;;;;;4954654;28;20480;-75
2023/07/16 01:47:58;;;;;;;5.72;2.63;;;;;;;;;;4954817;28;20088;-74
2023/07/16 01:50:24;;;;;;;13.85;6.10;;;;;;;;;;4956179;28;20023;-74
2023/07/16 01:52:49;;;;;;;5.72;2.65;;;;;;;;;;4974150;28;20437;-74
2023/07/16 01:55:15;;;;;;;9.80;2.75;;;;;;;;;;4979133;28;20031;-74
2023/07/16 01:57:40;;;;;;;8.55;2.92;;;;;;;;;;4975388;28;20368;-74
2023/07/16 02:00:08;;;;;;;11.40;4.50;;;;;;;;;;4973324;28;20034;-75
2023/07/16 02:02:33;;;;;;;4.15;2.55;;;;;;;;;;4970526;28;20425;-74
2023/07/16 02:05:00;;;;;;;8.18;2.85;;;;;;;;;;4971447;28;20614;-76
2023/07/16 02:07:25;;;;;;;5.72;2.72;;;;;;;;;;4970005;28;20027;-75
2023/07/16 02:09:51;;;;;;;8.30;3.20;;;;;;;;;;4953442;28;20057;-74
2023/07/16 02:12:16;;;;;;;5.45;3.10;;;;;;;;;;4953971;28;20078;-73
2023/07/16 02:14:42;;;;;;;5.38;3.03;;;;;;;;;;4954025;28;20130;-75
2023/07/16 02:17:07;;;;;;;6.43;2.97;;;;;;;;;;4971400;28;20031;-73
2023/07/16 02:19:33;;;;;;;6.35;3.00;;;;;;;;;;4971506;28;20034;-73
2023/07/16 02:21:58;;;;;;;6.07;2.72;;;;;;;;;;4954117;28;20049;-74
2023/07/16 02:24:24;;;;;;;8.27;3.03;;;;;;;;;;4971331;28;20369;-73
2023/07/16 02:26:50;;;;;;;5.55;3.13;;;;;;;;;;4972268;28;20031;-74
2023/07/16 02:29:15;;;;;;;8.15;3.05;;;;;;;;;;4971901;28;20483;-73
2023/07/16 02:31:43;;;;;;;5.57;2.90;;;;;;;;;;4954025;28;20062;-74
2023/07/16 02:34:08;;;;;;;2.92;2.55;;;;;;;;;;4953471;28;20429;-75
2023/07/16 02:36:34;;;;;;;5.88;2.70;;;;;;;;;;4953503;28;20027;-73
2023/07/16 02:38:59;;;;;;;7.97;3.20;;;;;;;;;;4954026;28;20478;-74
2023/07/16 02:41:25;;;;;;;6.20;2.80;;;;;;;;;;4974270;28;20074;-74
2023/07/16 02:44:04;;;;;;;4.85;2.92;;;;;;;;;;4956396;28;20542;-73
2023/07/16 02:46:29;;;;;;;7.22;2.42;;;;;;;;;;4956724;28;20030;-74
2023/07/16 02:48:55;;;;;;;9.38;3.35;;;;;;;;;;4973806;28;20364;-73
2023/07/16 02:51:20;;;;;;;8.65;2.67;;;;;;;;;;4974080;28;20105;-74
2023/07/16 02:53:46;;;;;;;7.70;2.83;;;;;;;;;;4956539;28;20054;-74
2023/07/16 02:56:11;;;;;;;12.70;2.83;;;;;;;;;;4973947;28;20505;-75
2023/07/16 02:58:36;;;;;;;6.30;2.75;;;;;;;;;;4956392;28;20027;-73
2023/07/16 03:01:02;;;;;;;11.77;3.35;;;;;;;;;;4973394;28;20031;-74
2023/07/16 03:03:28;;;;;;;4.30;2.47;;;;;;;;;;4956141;28;20031;-74
2023/07/16 03:05:53;;;;;;;5.53;2.55;;;;;;;;;;4973790;28;20027;-75
2023/07/16 03:08:19;;;;;;;5.78;2.70;;;;;;;;;;4957194;28;20037;-75
2023/07/16 03:10:44;;;;;;;7.30;2.88;;;;;;;;;;4973056;28;20027;-74
2023/07/16 03:13:10;;;;;;;3.08;2.30;;;;;;;;;;4956404;28;20065;-76
2023/07/16 03:15:35;;;;;;;7.22;2.88;;;;;;;;;;4973420;28;20041;-76
2023/07/16 03:18:01;;;;;;;4.97;2.60;;;;;;;;;;4955933;28;20054;-75
2023/07/16 03:20:26;;;;;;;7.00;2.85;;;;;;;;;;4956237;28;20034;-75
2023/07/16 03:22:52;;;;;;;7.40;2.58;;;;;;;;;;4974215;28;20468;-76
2023/07/16 03:25:18;;;;;;;3.70;2.67;;;;;;;;;;4955468;28;20494;-75
2023/07/16 03:27:43;;;;;;;3.28;2.95;;;;;;;;;;4973329;28;20023;-76
2023/07/16 03:30:09;;;;;;;4.10;2.80;;;;;;;;;;4972873;28;20050;-75
2023/07/16 03:32:34;;;;;;;4.32;2.55;;;;;;;;;;4973244;28;20095;-75
2023/07/16 03:35:00;;;;;;;5.20;2.65;;;;;;;;;;4955760;28;20424;-75
2023/07/16 03:37:25;;;;;;;6.07;2.53;;;;;;;;;;4956307;28;20035;-76
2023/07/16 03:39:51;;;;;;;3.20;2.30;;;;;;;;;;4973932;28;20408;-75
2023/07/16 03:42:17;;;;;;;5.32;2.38;;;;;;;;;;4973925;28;20130;-76
2023/07/16 03:44:42;;;;;;;3.97;2.15;;;;;;;;;;4972822;28;20129;-75
2023/07/16 03:47:08;;;;;;;5.13;2.50;;;;;;;;;;4955345;28;20026;-75
2023/07/16 03:49:33;;;;;;;7.82;1.90;;;;;;;;;;4972986;28;20439;-76
2023/07/16 03:51:59;;;;;;;4.75;2.20;;;;;;;;;;4972146;28;20034;-75
2023/07/16 03:54:24;;;;;;;6.47;1.88;;;;;;;;;;4955209;28;20030;-76
2023/07/16 03:56:50;;;;;;;6.68;1.83;;;;;;;;;;4972329;28;20109;-76
2023/07/16 03:59:15;;;;;;;9.57;1.67;;;;;;;;;;4972579;28;20038;-76
2023/07/16 04:01:41;;;;;;;5.25;1.80;;;;;;;;;;4972471;28;20022;-75
2023/07/16 04:04:07;;;;;;;7.10;1.70;;;;;;;;;;4972145;28;20054;-75
2023/07/16 04:06:32;;;;;;;2.55;1.60;;;;;;;;;;4972462;28;20058;-75
2023/07/16 04:08:58;;;;;;;4.47;1.52;;;;;;;;;;4972270;28;20657;-76
2023/07/16 04:11:23;;;;;;;2.38;1.60;;;;;;;;;;4972600;28;20114;-77
2023/07/16 04:13:49;;;;;;;7.20;1.92;;;;;;;;;;4972280;28;20038;-76
2023/07/16 04:16:14;;;;;;;3.88;1.40;;;;;;;;;;4971825;28;20022;-76
2023/07/16 04:18:40;;;;;;;5.07;1.60;;;;;;;;;;4973204;28;20381;-74
2023/07/16 04:21:05;;;;;;;2.78;1.30;;;;;;;;;;4954802;28;20143;-75
2023/07/16 04:23:31;;;;;;;4.13;2.05;;;;;;;;;;4955057;28;20664;-75
2023/07/16 04:25:56;;;;;;;5.40;1.90;;;;;;;;;;4954647;28;20026;-75
2023/07/16 04:28:22;;;;;;;7.25;1.75;;;;;;;;;;4954819;28;20037;-75
2023/07/16 04:30:47;;;;;;;3.60;1.60;;;;;;;;;;4972526;28;20392;-75
2023/07/16 04:33:13;;;;;;;2.33;1.42;;;;;;;;;;4972460;28;20027;-75
2023/07/16 04:35:38;;;;;;;3.38;1.45;;;;;;;;;;4954976;28;20409;-75
2023/07/16 04:38:04;;;;;;;1.88;1.50;;;;;;;;;;4969914;28;20514;-75
2023/07/16 04:40:30;;;;;;;2.35;1.20;;;;;;;;;;4970211;28;20165;-75
2023/07/16 04:42:56;;;;;;;3.28;1.35;;;;;;;;;;4971686;28;20031;-75
2023/07/16 04:45:21;;;;;;;1.92;1.35;;;;;;;;;;4971921;28;20459;-74
2023/07/16 04:47:47;;;;;;;3.60;1.60;;;;;;;;;;4971920;28;20077;-75
2023/07/16 04:50:12;;;;;;;1.80;1.30;;;;;;;;;;4972007;28;20046;-75
2023/07/16 04:52:38;;;;;;;4.07;2.65;;;;;;;;;;4954355;28;20034;-75
2023/07/16 04:55:04;;;;;;;1.27;1.17;;;;;;;;;;4971423;28;20019;-75
2023/07/16 04:57:29;;;;;;;8.63;1.95;;;;;;;;;;4971898;28;20070;-75
2023/07/16 04:59:55;;;;;;;3.60;1.75;;;;;;;;;;4954206;28;20174;-76
2023/07/16 05:02:21;;;;;;;4.22;2.30;;;;;;;;;;4972892;28;20098;-75
2023/07/16 05:04:48;;;;;;;3.80;1.73;;;;;;;;;;4972272;28;20105;-75
2023/07/16 05:07:14;;;;;;;4.63;2.20;;;;;;;;;;4971600;28;20023;-76
2023/07/16 05:09:39;;;;;;;6.00;2.13;;;;;;;;;;4953972;28;20046;-75
2023/07/16 05:12:05;;;;;;;5.85;2.38;;;;;;;;;;4971667;28;20126;-77
2023/07/16 05:14:31;;;;;;;5.80;2.17;;;;;;;;;;4970365;28;20347;-76
2023/07/16 05:16:56;;;;;;;7.90;2.58;;;;;;;;;;4953571;28;20035;-76
2023/07/16 05:19:22;;;;;;;2.83;2.28;;;;;;;;;;4954004;28;20035;-76
2023/07/16 05:21:49;;;;;;;6.82;2.22;;;;;;;;;;4954125;28;20029;-76
2023/07/16 05:24:15;;;;;;;5.40;2.20;;;;;;;;;;4971467;28;20112;-76
2023/07/16 05:26:40;;;;;;;2.60;1.85;;;;;;;;;;4954117;28;20397;-76
2023/07/16 05:29:06;;;;;;;3.17;1.85;;;;;;;;;;4954216;28;20130;-76
2023/07/16 05:31:31;;;;;;;1.90;1.80;;;;;;;;;;4971673;28;20030;-76
2023/07/16 05:33:57;;;;;;;3.00;1.90;;;;;;;;;;4954749;28;20022;-76
2023/07/16 05:36:22;;;;;;;4.13;2.05;;;;;;;;;;4939899;28;20105;-75
2023/07/16 05:38:48;;;;;;;4.00;1.85;;;;;;;;;;4955584;28;20081;-76
2023/07/16 05:41:13;;;;;;;4.13;2.08;;;;;;;;;;4955904;28;20027;-76
2023/07/16 05:43:39;;;;;;;1.83;1.60;;;;;;;;;;4955704;28;20027;-76
2023/07/16 05:46:05;;;;;;;6.43;2.10;;;;;;;;;;4940092;28;20089;-75
2023/07/16 05:48:32;;;;;;;4.15;2.03;;;;;;;;;;4956971;28;20027;-75
2023/07/16 05:50:57;;;;;;;3.60;1.90;;;;;;;;;;4957140;28;20019;-76
2023/07/16 05:53:23;;;;;;;3.75;1.83;;;;;;;;;;4956152;28;20033;-75
2023/07/16 05:55:49;;;;;;;2.30;1.85;;;;;;;;;;4956032;28;20035;-76
2023/07/16 05:58:15;;;;;;;4.10;1.70;;;;;;;;;;4971855;28;20037;-76
2023/07/16 06:00:42;;;;;;;2.58;1.77;;;;;;;;;;4973975;28;20034;-76
2023/07/16 06:03:08;;;;;;;3.90;2.28;;;;;;;;;;4955054;28;20494;-75
2023/07/16 06:05:34;;;;;;;2.25;2.05;;;;;;;;;;4974093;28;20030;-75
2023/07/16 06:08:01;;;;;;;4.00;2.00;;;;;;;;;;4956710;28;20018;-76
2023/07/16 06:10:27;;;;;;;3.20;1.95;;;;;;;;;;4979502;28;20029;-79
2023/07/16 06:12:52;;;;;;;2.75;2.03;;;;;;;;;;4965371;28;20030;-80
2023/07/16 06:15:18;;;;;;;2.60;2.10;;;;;;;;;;4988313;28;20057;-78
2023/07/16 06:17:45;;;;;;;4.63;2.33;;;;;;;;;;4979210;28;20027;-80
2023/07/16 06:20:10;;;;;;;3.83;2.10;;;;;;;;;;4977604;28;20061;-79
2023/07/16 06:22:36;;;;;;;3.70;2.33;;;;;;;;;;4978557;28;20402;-80
2023/07/16 06:25:02;;;;;;;4.63;2.35;;;;;;;;;;4945394;28;20035;-79
2023/07/16 06:27:27;;;;;;;3.90;2.40;;;;;;;;;;4960766;28;20022;-78
2023/07/16 06:29:53;;;;;;;5.85;2.67;;;;;;;;;;4979105;28;20054;-79
2023/07/16 06:32:20;;;;;;;4.05;2.58;;;;;;;;;;4977950;28;20038;-80
2023/07/16 06:34:46;;;;;;;3.28;2.15;;;;;;;;;;4979126;28;20097;-81
2023/07/16 06:37:11;;;;;;;3.20;2.33;;;;;;;;;;4961798;28;20034;-78
2023/07/16 06:39:36;;;;;;;4.32;2.33;;;;;;;;;;4942869;28;20379;-75
2023/07/16 06:42:02;;;;;;;4.18;2.42;;;;;;;;;;4975080;28;20070;-75
2023/07/16 06:44:28;;;;;;;2.13;1.75;;;;;;;;;;4973613;28;20073;-75
2023/07/16 06:46:53;;;;;;;19.63;3.10;;;;;;;;;;4956518;28;20424;-76
2023/07/16 06:49:19;;;;;;;5.22;2.20;;;;;;;;;;4972659;28;20452;-75
2023/07/16 06:51:44;;;;;;;3.47;2.13;;;;;;;;;;4974332;28;20099;-75
2023/07/16 06:54:10;;;;;;;3.28;1.88;;;;;;;;;;4956480;28;20539;-77
2023/07/16 06:56:36;;;;;;;5.20;2.72;;;;;;;;;;4975459;28;20030;-76
2023/07/16 06:59:01;;;;;;;4.47;3.08;;;;;;;;;;4958424;28;20386;-76
2023/07/16 07:01:27;;;;;;;3.88;2.65;;;;;;;;;;4975697;28;20460;-74
2023/07/16 07:03:53;;;;;;;4.38;3.05;;;;;;;;;;4974773;28;20038;-76
2023/07/16 07:06:21;;;;;;;3.80;2.75;;;;;;;;;;4974426;28;20078;-75
2023/07/16 07:08:46;;;;;;;4.68;2.40;;;;;;;;;;4958246;28;20034;-76
2023/07/16 07:11:12;;;;;;;3.15;2.28;;;;;;;;;;4957672;28;20388;-76
2023/07/16 07:13:37;;;;;;;4.43;2.58;;;;;;;;;;4975848;28;20034;-76
2023/07/16 07:16:03;;;;;;;2.88;2.35;;;;;;;;;;4957583;28;20034;-76
2023/07/16 07:18:28;;;;;;;4.78;2.10;;;;;;;;;;4957796;28;20035;-76
2023/07/16 07:20:54;;;;;;;5.13;3.13;;;;;;;;;;4975470;28;20026;-75
2023/07/16 07:23:19;;;;;;;3.55;2.58;;;;;;;;;;4956888;28;20027;-76
2023/07/16 07:25:51;;;;;;;21.35;3.33;;;;;;;;;;4973522;28;20031;-76
2023/07/16 07:28:16;;;;;;;3.70;2.78;;;;;;;;;;4956370;28;20114;-76
2023/07/16 07:30:41;;;;;;;3.45;2.20;;;;;;;;;;4971953;28;20122;-75
2023/07/16 07:33:07;;;;;;;4.57;3.08;;;;;;;;;;4973260;28;20081;-75
2023/07/16 07:35:32;;;;;;;5.43;2.70;;;;;;;;;;4956229;28;20535;-75
2023/07/16 07:37:58;;;;;;;4.22;2.50;;;;;;;;;;4956375;28;20023;-75
2023/07/16 07:40:24;;;;;;;5.65;3.17;;;;;;;;;;4974053;28;20496;-76
2023/07/16 07:42:49;;;;;;;3.92;2.67;;;;;;;;;;4956092;28;20431;-75
2023/07/16 07:45:15;;;;;;;4.00;2.47;;;;;;;;;;4956300;28;20022;-76
2023/07/16 07:47:41;;;;;;;7.65;3.15;;;;;;;;;;4956163;28;20045;-76
2023/07/16 07:50:07;;;;;;;5.43;2.95;;;;;;;;;;4973315;28;20081;-76
2023/07/16 07:52:32;;;;;;;3.40;2.60;;;;;;;;;;4973538;28;20499;-75
2023/07/16 07:54:58;;;;;;;3.15;2.50;;;;;;;;;;4955098;28;20027;-74
2023/07/16 07:57:23;;;;;;;3.65;2.60;;;;;;;;;;4972806;28;20580;-75
2023/07/16 07:59:51;;;;;;;3.08;2.00;;;;;;;;;;4955089;28;20062;-76
2023/07/16 08:02:21;;;;;;;2.92;2.20;;;;;;;;;;4955162;28;20422;-76
2023/07/16 08:04:46;;;;;;;2.58;2.10;;;;;;;;;;4955171;28;20027;-76
2023/07/16 08:07:12;;;;;;;2.05;1.73;;;;;;;;;;4954872;28;20097;-76
2023/07/16 08:09:37;;;;;;;1.98;1.83;;;;;;;;;;4972478;28;20439;-76
2023/07/16 08:12:04;;;;;;;4.38;2.10;;;;;;;;;;4972445;28;20030;-76
2023/07/16 08:14:30;;;;;;;3.63;2.17;;;;;;;;;;4954713;28;20027;-76
2023/07/16 08:16:55;;;;;;;2.53;2.17;;;;;;;;;;4972490;28;20030;-75
2023/07/16 08:19:21;;;;;;;4.15;1.60;;;;;;;;;;4972327;28;20033;-76
2023/07/16 08:21:46;;;;;;;3.05;1.95;;;;;;;;;;4954944;28;20383;-76
2023/07/16 08:24:11;;;;;;;5.85;2.30;;;;;;;;;;4973048;28;20031;-76
2023/07/16 08:26:37;;;;;;;4.20;1.55;;;;;;;;;;4974418;28;20038;-76
2023/07/16 08:29:03;;;;;;;2.70;1.92;;;;;;;;;;4972008;28;20197;-76
2023/07/16 08:31:29;;;;;;;2.15;1.95;;;;;;;;;;4954670;28;20069;-76
2023/07/16 08:33:54;;;;;;;2.85;1.65;;;;;;;;;;4954875;28;20373;-77
2023/07/16 08:36:20;;;;;;;3.80;2.13;;;;;;;;;;4971900;28;20022;-76
2023/07/16 08:38:45;;;;;;;2.20;2.00;;;;;;;;;;4954511;28;20023;-76
2023/07/16 08:41:11;;;;;;;2.05;1.75;;;;;;;;;;4971954;28;20048;-76
2023/07/16 08:43:37;;;;;;;3.22;2.30;;;;;;;;;;4972116;28;20040;-75
2023/07/16 08:46:03;;;;;;;3.33;1.88;;;;;;;;;;4971911;28;20926;-76
2023/07/16 08:48:29;;;;;;;3.97;2.08;;;;;;;;;;4971869;28;20122;-76
2023/07/16 08:50:57;;;;;;;5.30;4.45;;;;;;;;;;4954714;28;20089;-76
2023/07/16 08:53:23;;;;;;;2.35;2.13;;;;;;;;;;4953915;28;20033;-76
2023/07/16 08:55:49;;;;;;;2.47;1.88;;;;;;;;;;4954339;28;20027;-75
2023/07/16 08:58:14;;;;;;;2.67;2.13;;;;;;;;;;4955653;28;20061;-81
2023/07/16 09:00:42;;;;;;;2.33;1.98;;;;;;;;;;4974727;28;20027;-80
2023/07/16 09:03:08;;;;;;;2.50;2.08;;;;;;;;;;4980529;28;20029;-75
2023/07/16 09:05:36;;;;;;;2.90;2.60;;;;;;;;;;4967089;28;20412;-80
2023/07/16 09:08:02;;;;;;;2.40;2.20;;;;;;;;;;4960631;28;20039;-82
2023/07/16 09:10:27;;;;;;;3.47;1.90;;;;;;;;;;4974067;28;20042;-80
2023/07/16 09:12:53;;;;;;;2.13;1.70;;;;;;;;;;4941574;28;20070;-80
2023/07/16 09:15:21;;;;;;;2.20;1.90;;;;;;;;;;4974921;28;20109;-81
2023/07/16 09:17:50;;;;;;;2.65;1.83;;;;;;;;;;4971727;28;20030;-76
2023/07/16 09:20:17;;;;;;;2.92;1.73;;;;;;;;;;4971545;28;20029;-75
2023/07/16 09:22:43;;;;;;;6.88;2.28;;;;;;;;;;4938300;28;20033;-76
2023/07/16 09:25:09;;;;;;;4.28;2.10;;;;;;;;;;4953682;28;20403;-78
2023/07/16 09:27:35;;;;;;;4.70;1.60;;;;;;;;;;4938006;28;20102;-74
2023/07/16 09:30:02;;;;;;;2.40;1.35;;;;;;;;;;4971087;28;20484;-75
2023/07/16 09:32:35;;;;;;;3.70;1.30;;;;;;;;;;4954465;28;20038;-75
2023/07/16 09:35:01;;;;;;;2.30;1.50;;;;;;;;;;4973062;28;20022;-76
2023/07/16 09:37:28;;;;;;;1.30;1.20;;;;;;;;;;4972322;28;20471;-76
2023/07/16 09:39:54;;;;;;;3.70;1.80;;;;;;;;;;4954091;28;20121;-76
2023/07/16 09:42:20;;;;;;;2.83;1.42;;;;;;;;;;4970881;28;20114;-75
2023/07/16 09:44:46;;;;;;;1.73;1.27;;;;;;;;;;4953524;28;20379;-75
2023/07/16 09:47:13;;;;;;;1.50;1.40;;;;;;;;;;4937665;28;20042;-76
2023/07/16 09:49:38;;;;;;;1.30;1.20;;;;;;;;;;4955550;28;20126;-77
2023/07/16 09:52:05;;;;;;;2.90;1.40;;;;;;;;;;4958055;28;20110;-76
2023/07/16 09:54:37;;;;;;;1.15;1.10;;;;;;;;;;4975716;28;20459;-75
2023/07/16 09:57:04;;;;;;;7.00;1.52;;;;;;;;;;4958504;28;20062;-76
2023/07/16 09:59:32;;;;;;;4.82;2.20;;;;;;;;;;4957617;28;20023;-76
2023/07/16 10:01:58;;;;;;;3.35;1.38;;;;;;;;;;4975958;28;20031;-75
2023/07/16 10:04:23;;;;;;;1.45;1.35;;;;;;;;;;4957923;28;20093;-76
2023/07/16 10:06:59;;;;;;;2.47;1.90;;;;;;;;;;4975219;28;20023;-75
2023/07/16 10:09:38;;;;;;;1.70;1.42;;;;;;;;;;4975158;28;20097;-76
2023/07/16 10:12:14;;;;;;;2.13;1.33;;;;;;;;;;4974851;28;20029;-76
2023/07/16 10:14:51;;;;;;;2.08;1.35;;;;;;;;;;4957648;28;20054;-76
2023/07/16 10:17:21;;;;;;;5.60;1.67;;;;;;;;;;4958861;28;20031;-75
2023/07/16 10:19:51;;;;;;;1.95;1.30;;;;;;;;;;4974835;28;20442;-75
2023/07/16 10:22:18;;;;;;;2.28;1.42;;;;;;;;;;4975666;28;20495;-76
2023/07/16 10:24:43;;;;;;;2.22;1.42;;;;;;;;;;4977123;28;20042;-75
2023/07/16 10:27:09;;;;;;;1.73;1.35;;;;;;;;;;4960051;28;20375;-77
2023/07/16 10:29:36;;;;;;;1.23;1.13;;;;;;;;;;4977387;28;20046;-76
2023/07/16 10:32:02;;;;;;;1.42;1.30;;;;;;;;;;4977838;28;20140;-76
2023/07/16 10:34:29;;;;;;;1.38;1.23;;;;;;;;;;4977362;28;20090;-77
2023/07/16 10:36:54;;;;;;;1.65;1.55;;;;;;;;;;4975583;28;20029;-77
2023/07/16 10:39:20;;;;;;;2.40;1.70;;;;;;;;;;4957383;28;20034;-76
2023/07/16 10:41:46;;;;;;;1.33;1.20;;;;;;;;;;4975277;28;20023;-76
2023/07/16 10:44:15;;;;;;;2.17;1.55;;;;;;;;;;4941622;28;20173;-79
2023/07/16 10:46:44;;;;;;;2.55;1.20;;;;;;;;;;4957647;28;20070;-79
2023/07/16 10:49:10;;;;;;;4.47;1.50;;;;;;;;;;4957764;28;20026;-80
2023/07/16 10:51:35;;;;;;;1.67;1.27;;;;;;;;;;4956877;28;20129;-79
2023/07/16 10:54:05;;;;;;;2.05;1.30;;;;;;;;;;4941731;28;20042;-79
2023/07/16 10:56:35;;;;;;;2.25;1.63;;;;;;;;;;4956631;28;20027;-79
2023/07/16 10:59:01;;;;;;;2.10;1.58;;;;;;;;;;4974535;28;20463;-79
2023/07/16 11:01:29;;;;;;;2.00;1.15;;;;;;;;;;4974021;28;20038;-78
2023/07/16 11:04:16;;;;;;;2.08;1.33;;;;;;;;;;4974464;28;20105;-77
2023/07/16 11:06:42;;;;;;;2.42;1.50;;;;;;;;;;4973026;28;20065;-79
2023/07/16 11:09:11;;;;;;;1.40;1.30;;;;;;;;;;4957756;28;20061;-79
2023/07/16 11:11:37;;;;;;;1.73;1.25;;;;;;;;;;4940744;28;20035;-79
2023/07/16 11:14:04;;;;;;;1.83;1.30;;;;;;;;;;4973824;28;20022;-80
2023/07/16 11:16:37;;;;;;;1.58;1.20;;;;;;;;;;4943465;28;20030;-78
2023/07/16 11:19:07;;;;;;;3.38;1.50;;;;;;;;;;4959749;28;20027;-78
2023/07/16 11:21:36;;;;;;;2.22;1.45;;;;;;;;;;4957785;28;20023;-78
2023/07/16 11:24:14;;;;;;;2.75;1.58;;;;;;;;;;4956561;28;20124;-79
2023/07/16 11:26:40;;;;;;;4.13;1.40;;;;;;;;;;4973460;28;20432;-79
2023/07/16 11:29:13;;;;;;;3.47;1.50;;;;;;;;;;4953740;28;20059;-79
2023/07/16 11:31:42;;;;;;;2.10;1.35;;;;;;;;;;4954347;28;20466;-78
2023/07/16 11:34:08;;;;;;;1.60;1.20;;;;;;;;;;4952631;29;20039;-78
2023/07/16 11:36:34;;;;;;;5.03;1.67;;;;;;;;;;4953050;29;20108;-79
2023/07/16 11:39:02;;;;;;;1.90;1.70;;;;;;;;;;4954201;28;20026;-79
2023/07/16 11:41:28;;;;;;;3.45;1.55;;;;;;;;;;4953830;28;20029;-78
2023/07/16 11:43:53;;;;;;;3.30;1.45;;;;;;;;;;4952710;29;20114;-78
2023/07/16 11:46:19;;;;;;;3.17;1.65;;;;;;;;;;4952397;29;20031;-77
2023/07/16 11:48:45;;;;;;;2.20;1.60;;;;;;;;;;4952123;29;20456;-78
2023/07/16 11:51:11;;;;;;;1.40;1.17;;;;;;;;;;4952392;29;20027;-78
2023/07/16 11:53:36;;;;;;;3.08;1.75;;;;;;;;;;4952570;29;20193;-78
2023/07/16 11:56:02;;;;;;;4.45;1.77;;;;;;;;;;4952583;29;20023;-78
2023/07/16 11:58:27;;;;;;;3.40;1.80;;;;;;;;;;4952989;29;20038;-78
2023/07/16 12:00:53;;;;;;;2.53;1.30;;;;;;;;;;4953057;29;20505;-79
2023/07/16 12:03:20;;;;;;;13.90;2.90;;;;;;;;;;4955065;29;20524;-78
2023/07/16 12:05:45;;;;;;;2.90;1.77;;;;;;;;;;4960265;28;20027;-78
2023/07/16 12:08:14;;;;;;;2.92;1.38;;;;;;;;;;4959385;29;20484;-79
2023/07/16 12:10:42;;;;;;;11.25;2.38;;;;;;;;;;4956213;28;20109;-79
2023/07/16 12:13:07;;;;;;;3.55;1.65;;;;;;;;;;4954749;28;20019;-79
2023/07/16 12:15:33;;;;;;;4.00;1.50;;;;;;;;;;4958314;28;20035;-78
2023/07/16 12:18:02;;;;;;;4.38;1.77;;;;;;;;;;4958037;28;20019;-77
2023/07/16 12:20:27;;;;;;;5.60;1.88;;;;;;;;;;4955438;28;20034;-77
2023/07/16 12:22:54;;;;;;;2.90;1.70;;;;;;;;;;4953088;28;20035;-77
2023/07/16 12:25:20;;;;;;;4.07;1.83;;;;;;;;;;4952788;28;20637;-77
2023/07/16 12:27:45;;;;;;;3.03;1.30;;;;;;;;;;4953036;28;20033;-80
2023/07/16 12:30:11;;;;;;;7.40;2.40;;;;;;;;;;4965821;28;20066;-78
2023/07/16 12:32:37;;;;;;;5.32;1.30;;;;;;;;;;4954629;28;20041;-78
2023/07/16 12:35:04;;;;;;;7.85;1.60;;;;;;;;;;4971149;28;20539;-78
2023/07/16 12:37:30;;;;;;;4.63;1.40;;;;;;;;;;4971736;28;20033;-77
2023/07/16 12:39:55;;;;;;;3.50;1.70;;;;;;;;;;4954787;28;20054;-78
2023/07/16 12:42:21;;;;;;;8.60;2.25;;;;;;;;;;4972466;28;20065;-78
2023/07/16 12:44:49;;;;;;;9.38;1.60;;;;;;;;;;4971816;28;20145;-78
2023/07/16 12:47:15;;;;;;;11.55;3.17;;;;;;;;;;4970898;28;20027;-77
2023/07/16 12:49:41;;;;;;;4.03;1.90;;;;;;;;;;4954380;28;20250;-79
2023/07/16 12:52:07;;;;;;;3.67;1.67;;;;;;;;;;4971136;28;20023;-80
2023/07/16 12:54:32;;;;;;;3.03;1.77;;;;;;;;;;4953869;28;20038;-78
2023/07/16 12:56:58;;;;;;;1.67;1.55;;;;;;;;;;4954182;28;20027;-78
2023/07/16 12:59:24;;;;;;;4.93;1.90;;;;;;;;;;4971695;28;20396;-78
2023/07/16 13:01:50;;;;;;;2.15;1.80;;;;;;;;;;4971780;28;20045;-77
2023/07/16 13:04:16;;;;;;;3.85;1.80;;;;;;;;;;4971814;28;20423;-78
2023/07/16 13:06:42;;;;;;;2.70;1.70;;;;;;;;;;4971478;28;20101;-79
2023/07/16 13:09:07;;;;;;;2.40;1.35;;;;;;;;;;4954372;28;20025;-78
2023/07/16 13:11:33;;;;;;;3.15;1.70;;;;;;;;;;4971271;28;20503;-77
2023/07/16 13:13:59;;;;;;;1.50;1.35;;;;;;;;;;4954416;28;20033;-80
2023/07/16 13:16:24;;;;;;;2.17;1.60;;;;;;;;;;4954309;28;20150;-78
2023/07/16 13:18:50;;;;;;;2.20;1.60;;;;;;;;;;4954087;28;20031;-78
2023/07/16 13:21:15;;;;;;;4.10;1.40;;;;;;;;;;4972274;28;20049;-78
2023/07/16 13:23:41;;;;;;;3.60;1.88;;;;;;;;;;4972514;28;20026;-79
2023/07/16 13:26:06;;;;;;;1.88;1.38;;;;;;;;;;4973326;28;20026;-79
2023/07/16 13:28:32;;;;;;;1.55;1.30;;;;;;;;;;4970916;28;20023;-79
2023/07/16 13:30:57;;;;;;;4.10;1.92;;;;;;;;;;4974113;28;20106;-79
2023/07/16 13:33:23;;;;;;;5.32;1.70;;;;;;;;;;4957202;28;20543;-79
2023/07/16 13:35:48;;;;;;;2.15;1.40;;;;;;;;;;4973129;28;20029;-78
2023/07/16 13:38:14;;;;;;;6.57;2.08;;;;;;;;;;4973332;28;20034;-80
2023/07/16 13:40:40;;;;;;;2.35;1.77;;;;;;;;;;4972838;28;20353;-79
2023/07/16 13:43:07;;;;;;;2.67;1.77;;;;;;;;;;4955681;28;20057;-79
2023/07/16 13:45:33;;;;;;;2.60;1.33;;;;;;;;;;4972317;28;20026;-80
2023/07/16 13:47:59;;;;;;;2.45;1.20;;;;;;;;;;4970619;28;20050;-79
2023/07/16 13:50:24;;;;;;;3.17;1.30;;;;;;;;;;4972670;28;20058;-76
2023/07/16 13:52:50;;;;;;;3.78;1.60;;;;;;;;;;4955134;28;20424;-79
2023/07/16 13:55:16;;;;;;;1.73;1.48;;;;;;;;;;4954371;28;20085;-79
2023/07/16 13:57:42;;;;;;;1.65;1.30;;;;;;;;;;4972238;28;20033;-79
2023/07/16 14:00:11;;;;;;;3.00;1.50;;;;;;;;;;4954253;28;20023;-79
2023/07/16 14:02:37;;;;;;;3.97;1.88;;;;;;;;;;4954868;28;20027;-81
2023/07/16 14:05:04;;;;;;;1.50;1.40;;;;;;;;;;4955007;28;20108;-78
2023/07/16 14:07:31;;;;;;;6.05;3.30;;;;;;;;;;4971947;28;20027;-79
2023/07/16 14:09:56;;;;;;;4.22;1.67;;;;;;;;;;4955527;28;20026;-79
2023/07/16 14:12:22;;;;;;;4.47;1.70;;;;;;;;;;4973148;28;20498;-79
2023/07/16 14:14:47;;;;;;;3.97;1.50;;;;;;;;;;4954714;28;20077;-79
2023/07/16 14:17:12;;;;;;;4.60;1.50;;;;;;;;;;4955355;28;20113;-79
2023/07/16 14:19:38;;;;;;;3.80;1.95;;;;;;;;;;4955726;28;20226;-80
2023/07/16 14:22:05;;;;;;;5.05;1.65;;;;;;;;;;4974712;28;20033;-79
2023/07/16 14:24:30;;;;;;;2.60;1.20;;;;;;;;;;4972340;28;20073;-79
2023/07/16 14:27:01;;;;;;;2.13;1.17;;;;;;;;;;4974523;28;20031;-78
2023/07/16 14:29:29;;;;;;;2.92;1.60;;;;;;;;;;4955789;28;20561;-77
2023/07/16 14:31:55;;;;;;;3.47;1.35;;;;;;;;;;4972716;28;20026;-79
2023/07/16 14:34:22;;;;;;;2.88;1.80;;;;;;;;;;4971537;28;20027;-79
2023/07/16 14:36:48;;;;;;;3.65;1.65;;;;;;;;;;4975283;28;20031;-80
2023/07/16 14:39:15;;;;;;;1.65;1.20;;;;;;;;;;4979299;28;20033;-79